METAR Data

Data at: 2245 UTC 26 Feb 2020

METAR for:KLWM (Lawrence Muni, MA, US)
Text:KLWM 262215Z 05005KT 1SM BR OVC004 05/04 A3000 RMK AO2 RAE00 P0000 T00500044
Temperature: 5.0°C ( 41°F)
Dewpoint: 4.4°C ( 40°F) [RH = 96%]
Pressure (altimeter):30.00 inches Hg (1016.0 mb)
Winds:from the NE (50 degrees) at 6 MPH (5 knots; 2.6 m/s)
Visibility: 1.00 sm ( 1.61 km)
Ceiling:400 feet AGL
Clouds: overcast cloud deck at 400 feet AGL
Weather:BR (mist)